createdAt,value
2018-12-14T00:00:21.423Z,187.23
2018-12-14T00:02:48.940Z,190.67
2018-12-14T00:05:16.510Z,199.10
2018-12-14T00:07:45.013Z,209.13
2018-12-14T00:10:12.571Z,206.77
2018-12-14T00:12:40.091Z,207.70
2018-12-14T00:15:07.612Z,191.10
2018-12-14T00:17:35.177Z,205.37
2018-12-14T00:20:02.821Z,228.97
2018-12-14T00:22:30.493Z,234.63
2018-12-14T00:24:58.058Z,208.93
2018-12-14T00:27:25.686Z,214.47
2018-12-14T00:29:53.343Z,241.80
2018-12-14T00:32:21.105Z,223.97
2018-12-14T00:34:57.871Z,222.00
2018-12-14T00:37:25.479Z,236.30
2018-12-14T00:39:53.018Z,215.27
2018-12-14T00:42:20.599Z,230.20
2018-12-14T00:44:48.177Z,228.13
2018-12-14T00:47:15.752Z,206.13
2018-12-14T00:49:43.295Z,220.13
2018-12-14T00:52:10.874Z,214.07
2018-12-14T00:54:38.439Z,214.47
2018-12-14T00:57:05.977Z,195.77
2018-12-14T00:59:34.474Z,218.33
2018-12-14T01:02:02.048Z,200.37
2018-12-14T01:04:29.572Z,213.30
2018-12-14T01:06:57.153Z,218.20
2018-12-14T01:09:24.750Z,192.07
2018-12-14T01:11:58.093Z,209.13
2018-12-14T01:14:21.895Z,199.03
2018-12-14T01:16:49.408Z,196.83
2018-12-14T01:19:16.944Z,189.23
2018-12-14T01:21:44.530Z,182.63
2018-12-14T01:24:12.978Z,201.37
2018-12-14T01:26:40.529Z,183.60
2018-12-14T01:29:08.082Z,185.07
2018-12-14T01:31:35.636Z,185.13
2018-12-14T01:34:03.201Z,200.83
2018-12-14T01:36:30.714Z,195.70
2018-12-14T01:38:58.238Z,187.10
2018-12-14T01:41:25.796Z,198.47
2018-12-14T01:43:53.325Z,205.93
2018-12-14T01:46:20.857Z,191.07
2018-12-14T01:48:48.385Z,196.77
2018-12-14T01:51:15.956Z,180.80
2018-12-14T01:53:43.486Z,176.57
2018-12-14T01:56:11.053Z,172.43
2018-12-14T01:58:39.533Z,162.97
2018-12-14T02:24:26.148Z,107.13
